createdAt,value
2019-06-27T00:01:46.600Z,89.50
2019-06-27T00:04:15.437Z,89.90
2019-06-27T00:06:44.202Z,90.20
2019-06-27T00:09:13.515Z,90.10
2019-06-27T00:11:42.775Z,89.60
2019-06-27T00:14:11.752Z,90.50
2019-06-27T00:16:41.004Z,90.20
2019-06-27T00:19:09.974Z,90.30
2019-06-27T00:21:39.063Z,90.10
2019-06-27T00:24:08.534Z,90.40
2019-06-27T00:26:37.311Z,90.20
2019-06-27T00:29:06.551Z,90.60
2019-06-27T00:31:36.068Z,90.40
2019-06-27T00:34:05.162Z,90.30
2019-06-27T00:36:34.147Z,90.70
2019-06-27T00:39:03.254Z,91.10
2019-06-27T00:41:32.584Z,91.00
2019-06-27T00:44:01.449Z,91.30
2019-06-27T00:46:30.514Z,91.00
2019-06-27T00:48:59.977Z,91.40
2019-06-27T00:51:29.263Z,91.50
2019-06-27T00:53:59.725Z,91.60
2019-06-27T00:56:28.515Z,91.70
2019-06-27T00:58:59.819Z,91.80
2019-06-27T01:01:30.180Z,92.00
2019-06-27T01:03:59.579Z,92.00
2019-06-27T01:06:28.675Z,91.80
2019-06-27T01:08:57.895Z,91.90
2019-06-27T01:11:26.631Z,92.10
2019-06-27T01:13:55.390Z,91.70
2019-06-27T01:16:24.834Z,92.10
2019-06-27T01:18:54.448Z,92.30
2019-06-27T01:21:23.676Z,92.70
2019-06-27T01:23:52.953Z,92.70
2019-06-27T01:26:22.491Z,92.20
2019-06-27T01:28:51.503Z,91.90
2019-06-27T01:31:20.581Z,92.20
2019-06-27T01:33:49.446Z,92.00
2019-06-27T01:36:18.786Z,91.90
2019-06-27T01:38:48.050Z,91.70
2019-06-27T01:41:17.064Z,92.30
2019-06-27T01:43:46.318Z,92.30
2019-06-27T01:46:15.342Z,92.30
2019-06-27T01:48:44.331Z,92.20
2019-06-27T01:51:13.346Z,92.60
2019-06-27T01:53:42.361Z,92.60
2019-06-27T01:56:11.614Z,92.60
2019-06-27T01:58:40.492Z,92.70
2019-06-27T02:01:09.488Z,92.80
2019-06-27T02:03:38.338Z,92.80
2019-06-27T02:06:07.183Z,93.10
2019-06-27T02:08:36.266Z,92.90
2019-06-27T02:11:05.974Z,93.00
2019-06-27T02:13:35.046Z,92.70
2019-06-27T02:16:03.872Z,93.00
2019-06-27T02:18:32.970Z,92.90
2019-06-27T02:21:01.973Z,92.20
2019-06-27T02:23:30.726Z,92.30
2019-06-27T02:25:59.742Z,92.60
2019-06-27T02:28:28.730Z,92.30
2019-06-27T02:30:57.494Z,92.20
2019-06-27T02:33:26.740Z,92.30
2019-06-27T02:35:56.144Z,91.90
2019-06-27T02:38:25.247Z,92.50
2019-06-27T02:40:58.515Z,92.50
2019-06-27T02:43:25.041Z,92.40
2019-06-27T02:45:53.784Z,92.70
2019-06-27T02:48:22.807Z,92.60
2019-06-27T02:50:51.972Z,92.70
2019-06-27T02:53:20.988Z,92.40
2019-06-27T02:55:49.983Z,92.20
2019-06-27T02:58:29.821Z,92.20
2019-06-27T03:00:49.577Z,91.70
2019-06-27T03:03:18.574Z,91.50
2019-06-27T03:05:47.403Z,91.50
2019-06-27T03:08:16.760Z,92.20
2019-06-27T03:10:46.215Z,91.60
2019-06-27T03:13:15.020Z,92.20
2019-06-27T03:15:44.036Z,91.80
2019-06-27T03:18:13.033Z,91.70
2019-06-27T03:20:42.116Z,91.80
2019-06-27T03:23:11.213Z,92.20
2019-06-27T03:25:40.247Z,92.30
2019-06-27T03:28:09.590Z,92.50
2019-06-27T03:30:38.613Z,92.50
2019-06-27T03:33:07.997Z,92.60
2019-06-27T03:35:37.341Z,92.20
2019-06-27T03:38:06.503Z,92.00
2019-06-27T03:40:35.751Z,91.80
2019-06-27T03:43:04.771Z,91.80
2019-06-27T03:45:34.276Z,91.70
2019-06-27T03:48:03.526Z,91.50
2019-06-27T03:50:32.619Z,91.70
2019-06-27T03:53:01.362Z,91.80
2019-06-27T03:55:30.229Z,92.30
2019-06-27T03:57:59.283Z,91.40
2019-06-27T04:00:32.540Z,91.90
2019-06-27T04:03:01.826Z,91.90
2019-06-27T04:05:30.836Z,91.80
2019-06-27T04:07:59.910Z,92.10
2019-06-27T04:10:28.884Z,92.10
2019-06-27T04:12:58.212Z,92.10
2019-06-27T04:15:27.497Z,91.90
2019-06-27T04:17:56.661Z,91.80
2019-06-27T04:20:25.858Z,91.50
2019-06-27T04:22:54.594Z,91.70
2019-06-27T04:25:23.599Z,91.30
2019-06-27T04:27:52.620Z,91.50
2019-06-27T04:30:21.797Z,91.40
2019-06-27T04:32:50.907Z,91.40
2019-06-27T04:35:20.391Z,91.40
2019-06-27T04:37:49.407Z,91.00
2019-06-27T04:40:18.723Z,90.70
2019-06-27T04:42:47.592Z,90.50
2019-06-27T04:45:16.678Z,90.80
2019-06-27T04:47:45.407Z,90.10
2019-06-27T04:50:14.321Z,90.20
2019-06-27T04:52:43.079Z,90.50
2019-06-27T04:55:11.799Z,90.70
2019-06-27T04:57:40.558Z,90.00
2019-06-27T05:00:09.666Z,90.70
2019-06-27T05:02:38.726Z,90.80
2019-06-27T05:05:07.634Z,90.20
2019-06-27T05:07:37.142Z,90.80
2019-06-27T05:10:06.451Z,91.00
2019-06-27T05:12:35.407Z,90.80
2019-06-27T05:15:04.346Z,90.30
2019-06-27T05:17:33.341Z,90.70
2019-06-27T05:20:03.462Z,90.60
2019-06-27T05:22:32.569Z,90.70
2019-06-27T05:25:01.689Z,90.20
2019-06-27T05:27:30.778Z,90.00
2019-06-27T05:30:09.576Z,89.80
2019-06-27T05:32:30.270Z,90.00
2019-06-27T05:34:59.298Z,90.10
2019-06-27T05:37:28.310Z,90.10
2019-06-27T05:39:57.047Z,88.90
2019-06-27T05:42:25.779Z,88.70
2019-06-27T05:44:54.707Z,88.20
2019-06-27T05:47:24.004Z,89.00
2019-06-27T05:49:53.298Z,89.00
2019-06-27T05:52:22.613Z,88.20
2019-06-27T05:54:53.066Z,86.30
2019-06-27T05:57:22.490Z,87.60
2019-06-27T05:59:51.402Z,87.00
2019-06-27T06:02:20.709Z,88.00
2019-06-27T06:04:50.545Z,86.50
2019-06-27T06:07:19.602Z,87.60
2019-06-27T06:09:48.598Z,87.30
2019-06-27T06:12:17.873Z,86.10
2019-06-27T06:14:47.131Z,86.60
2019-06-27T06:17:16.426Z,86.50
2019-06-27T06:19:45.257Z,86.00
2019-06-27T06:22:14.350Z,87.70
2019-06-27T06:24:43.346Z,85.10
2019-06-27T06:27:12.327Z,86.60
2019-06-27T06:29:41.094Z,85.00
2019-06-27T06:32:10.415Z,84.90
2019-06-27T06:34:40.500Z,85.00
2019-06-27T06:37:09.818Z,81.70
2019-06-27T06:39:38.847Z,82.80
2019-06-27T06:42:08.157Z,83.70
2019-06-27T06:44:36.903Z,82.70
2019-06-27T06:47:05.795Z,82.30
2019-06-27T06:49:34.521Z,81.90
2019-06-27T06:52:03.286Z,82.90
2019-06-27T06:54:32.820Z,83.30
2019-06-27T06:57:01.567Z,82.10
2019-06-27T06:59:30.612Z,80.90
2019-06-27T07:01:59.672Z,80.50
2019-06-27T07:04:28.667Z,77.70
2019-06-27T07:06:57.783Z,80.60
2019-06-27T07:09:26.557Z,80.10
2019-06-27T07:11:55.987Z,79.30
2019-06-27T07:14:28.379Z,78.70
2019-06-27T07:16:57.390Z,77.90
2019-06-27T07:19:26.155Z,76.90
2019-06-27T07:21:56.106Z,78.70
2019-06-27T07:24:25.102Z,77.60
2019-06-27T07:26:53.901Z,74.40
2019-06-27T07:29:22.689Z,74.00
2019-06-27T07:31:53.278Z,76.20
2019-06-27T07:34:22.260Z,75.80
2019-06-27T07:36:53.734Z,74.30
2019-06-27T07:39:23.096Z,73.60
2019-06-27T07:41:52.250Z,73.70
2019-06-27T07:44:21.275Z,70.60
2019-06-27T07:46:50.382Z,70.80
2019-06-27T07:49:19.454Z,69.20
2019-06-27T07:51:48.482Z,70.60
2019-06-27T07:54:17.909Z,72.60
2019-06-27T07:56:47.911Z,70.70
2019-06-27T07:59:17.049Z,71.20
2019-06-27T08:01:46.099Z,68.60
2019-06-27T08:04:16.815Z,71.30
2019-06-27T08:06:45.844Z,67.70
2019-06-27T08:09:15.028Z,69.70
2019-06-27T08:11:43.767Z,70.00
2019-06-27T08:14:12.783Z,69.50
2019-06-27T08:16:42.014Z,69.50
2019-06-27T08:19:10.774Z,70.00
2019-06-27T08:21:39.778Z,65.70
2019-06-27T08:24:09.092Z,65.40
2019-06-27T08:26:38.662Z,64.50
2019-06-27T08:29:14.589Z,67.40
2019-06-27T08:31:51.373Z,63.20
2019-06-27T08:34:16.098Z,67.20
2019-06-27T08:36:45.119Z,65.90
2019-06-27T08:39:14.385Z,66.80
2019-06-27T08:41:43.425Z,64.70
2019-06-27T08:44:12.514Z,65.30
2019-06-27T08:46:42.065Z,66.20
2019-06-27T08:49:11.679Z,64.20
2019-06-27T08:51:43.959Z,61.30
2019-06-27T08:54:13.657Z,63.40
2019-06-27T08:56:44.807Z,60.60
2019-06-27T08:59:14.066Z,65.30
2019-06-27T10:15:05.309Z,54.90
2019-06-27T10:17:34.571Z,54.30
2019-06-27T10:20:03.987Z,53.70
2019-06-27T10:22:32.898Z,55.80
2019-06-27T10:25:01.886Z,57.10
2019-06-27T10:27:30.721Z,56.20
2019-06-27T10:29:59.514Z,55.50
2019-06-27T10:32:28.508Z,54.90
2019-06-27T10:34:57.265Z,52.60
2019-06-27T10:37:26.010Z,56.50
2019-06-27T10:39:54.810Z,55.30
2019-06-27T10:42:23.573Z,55.70
2019-06-27T10:44:52.592Z,52.40
2019-06-27T10:47:21.620Z,53.80
2019-06-27T10:49:50.625Z,50.10
2019-06-27T10:52:19.708Z,52.70
2019-06-27T10:54:48.707Z,52.00
2019-06-27T10:57:17.985Z,52.70
2019-06-27T10:59:46.727Z,51.90
2019-06-27T11:02:15.913Z,51.50
2019-06-27T11:04:44.692Z,51.80
2019-06-27T11:07:13.432Z,50.00
2019-06-27T11:09:42.928Z,52.70
2019-06-27T11:12:12.270Z,52.30
2019-06-27T11:14:41.139Z,52.10
2019-06-27T11:17:10.230Z,50.50
2019-06-27T11:19:51.837Z,50.90
2019-06-27T11:22:09.845Z,51.00
2019-06-27T11:24:38.906Z,48.50
2019-06-27T11:27:08.380Z,50.20
2019-06-27T11:29:37.455Z,50.20
2019-06-27T11:32:06.337Z,51.70
2019-06-27T11:34:35.340Z,50.10
2019-06-27T11:37:04.272Z,50.80
2019-06-27T11:39:33.302Z,50.00
2019-06-27T11:42:02.406Z,47.90
2019-06-27T11:44:31.432Z,49.10
2019-06-27T11:47:00.268Z,52.50
2019-06-27T11:49:29.514Z,48.20
2019-06-27T11:51:58.528Z,49.40
2019-06-27T11:54:27.283Z,50.20
2019-06-27T11:56:56.693Z,49.20
2019-06-27T11:59:25.513Z,47.90
2019-06-27T12:01:55.046Z,48.60
2019-06-27T12:04:24.295Z,49.60
2019-06-27T12:06:53.406Z,46.50
2019-06-27T12:09:22.219Z,46.40
2019-06-27T12:11:51.217Z,48.20
2019-06-27T12:14:20.425Z,49.40
2019-06-27T12:16:49.207Z,46.30
2019-06-27T12:19:18.100Z,47.70
2019-06-27T12:21:47.357Z,46.50
2019-06-27T12:24:16.170Z,46.60
2019-06-27T12:26:44.967Z,46.00
2019-06-27T12:29:14.609Z,45.90
2019-06-27T12:31:43.510Z,46.60
2019-06-27T12:34:12.623Z,47.60
2019-06-27T12:36:41.375Z,46.50
2019-06-27T12:39:10.512Z,46.80
2019-06-27T12:41:39.249Z,45.40
2019-06-27T12:44:09.539Z,46.20
2019-06-27T12:46:38.759Z,44.90
2019-06-27T12:49:07.615Z,47.30
2019-06-27T12:51:36.392Z,43.50
2019-06-27T12:54:05.243Z,48.40
2019-06-27T12:56:34.618Z,47.10
2019-06-27T12:59:03.673Z,46.60
2019-06-27T13:01:32.649Z,46.50
2019-06-27T13:04:01.483Z,47.20
2019-06-27T13:06:30.528Z,45.20
2019-06-27T13:08:59.870Z,45.80
2019-06-27T13:11:29.177Z,46.00
2019-06-27T13:13:58.182Z,44.70
2019-06-27T13:16:30.919Z,46.20
2019-06-27T13:18:59.038Z,43.80
2019-06-27T13:21:27.791Z,44.90
2019-06-27T13:23:56.785Z,44.50
2019-06-27T13:26:25.826Z,44.90
2019-06-27T13:28:54.900Z,44.00
2019-06-27T13:31:24.130Z,44.30
2019-06-27T13:33:53.419Z,44.20
2019-06-27T13:36:22.188Z,44.40
2019-06-27T13:38:51.306Z,43.80
2019-06-27T13:41:20.567Z,42.40
2019-06-27T13:43:49.577Z,43.30
2019-06-27T13:46:18.506Z,42.70
2019-06-27T13:48:47.440Z,43.70
2019-06-27T13:51:16.276Z,43.90
2019-06-27T13:53:45.299Z,42.00
2019-06-27T13:56:14.342Z,43.70
2019-06-27T13:58:43.194Z,43.30
2019-06-27T14:01:12.753Z,46.50
2019-06-27T14:03:49.131Z,42.20
2019-06-27T14:06:13.404Z,43.90
2019-06-27T14:08:42.279Z,43.30
2019-06-27T14:11:11.755Z,44.40
2019-06-27T14:13:44.845Z,45.10
2019-06-27T14:16:14.262Z,45.20
2019-06-27T14:18:43.025Z,43.80
2019-06-27T14:21:13.441Z,44.00
2019-06-27T14:23:42.683Z,43.90
2019-06-27T14:26:11.843Z,43.60
2019-06-27T14:28:40.918Z,41.90
2019-06-27T14:31:09.694Z,43.70
2019-06-27T14:33:38.705Z,43.30
2019-06-27T14:36:07.791Z,43.30
2019-06-27T14:38:38.001Z,42.30
2019-06-27T14:41:06.998Z,42.70
2019-06-27T14:43:37.947Z,42.50
2019-06-27T14:46:06.813Z,42.70
2019-06-27T14:48:35.887Z,41.70
2019-06-27T14:51:04.728Z,43.20
2019-06-27T14:53:33.565Z,44.30
2019-06-27T14:56:02.571Z,42.10
2019-06-27T14:58:33.547Z,43.20
2019-06-27T15:01:05.777Z,42.10
2019-06-27T15:03:32.925Z,41.10
2019-06-27T15:06:02.247Z,41.80
2019-06-27T15:08:31.400Z,41.70
2019-06-27T15:11:00.186Z,42.80
2019-06-27T15:13:29.430Z,42.60
2019-06-27T15:16:11.131Z,42.30
2019-06-27T15:18:29.315Z,42.90
2019-06-27T15:20:58.186Z,43.30
2019-06-27T15:23:29.180Z,41.90
2019-06-27T15:25:58.434Z,41.90
2019-06-27T15:28:27.498Z,41.90
2019-06-27T15:30:56.314Z,42.70
2019-06-27T15:33:26.216Z,42.10
2019-06-27T15:35:55.594Z,42.40
2019-06-27T15:38:24.594Z,43.30
2019-06-27T15:40:55.494Z,42.90
2019-06-27T15:43:24.567Z,41.90
2019-06-27T15:45:53.382Z,42.70
2019-06-27T15:48:22.454Z,43.90
2019-06-27T15:50:51.198Z,41.20
2019-06-27T15:53:20.031Z,42.20
2019-06-27T15:55:49.281Z,42.30
2019-06-27T15:58:18.035Z,42.60
2019-06-27T16:00:47.622Z,42.30
2019-06-27T16:03:16.508Z,42.90
2019-06-27T16:05:45.471Z,44.20
2019-06-27T16:08:14.614Z,43.20
2019-06-27T16:10:43.423Z,44.90
2019-06-27T16:13:12.884Z,43.80
2019-06-27T16:15:41.783Z,44.30
2019-06-27T16:18:10.794Z,42.80
2019-06-27T16:20:39.678Z,42.50
2019-06-27T16:23:08.954Z,43.80
2019-06-27T16:25:37.742Z,42.60
2019-06-27T16:28:06.615Z,42.20
2019-06-27T16:30:36.397Z,42.70
2019-06-27T16:33:06.867Z,42.50
2019-06-27T16:35:36.221Z,45.10
2019-06-27T16:38:04.981Z,43.20
2019-06-27T16:40:33.899Z,44.70
2019-06-27T16:43:02.689Z,44.30
2019-06-27T16:45:31.674Z,44.90
2019-06-27T16:48:00.927Z,44.90
2019-06-27T16:50:29.710Z,43.70
2019-06-27T16:52:58.637Z,43.50
2019-06-27T16:55:27.607Z,43.90
2019-06-27T16:57:56.601Z,44.20
2019-06-27T17:00:25.760Z,44.60
2019-06-27T17:02:54.811Z,45.50
2019-06-27T17:05:23.578Z,45.30
2019-06-27T17:07:52.694Z,45.90
2019-06-27T17:10:21.598Z,45.30
2019-06-27T17:12:50.610Z,45.10
2019-06-27T17:15:24.749Z,45.50
2019-06-27T17:17:54.038Z,47.10
2019-06-27T17:20:22.843Z,46.60
2019-06-27T17:22:52.401Z,48.00
2019-06-27T17:25:21.389Z,48.10
2019-06-27T17:27:50.806Z,48.70
2019-06-27T17:30:20.494Z,49.00
2019-06-27T17:32:49.776Z,48.80
2019-06-27T17:35:19.292Z,49.60
2019-06-27T17:37:48.791Z,50.00
2019-06-27T17:40:18.168Z,50.70
2019-06-27T17:42:46.930Z,51.00
2019-06-27T17:45:16.214Z,51.10
2019-06-27T17:47:45.129Z,51.40
2019-06-27T17:50:14.260Z,52.00
2019-06-27T17:52:43.257Z,52.60
2019-06-27T17:55:12.128Z,53.00
2019-06-27T17:57:41.090Z,53.40
2019-06-27T18:00:10.675Z,54.80
2019-06-27T18:02:39.579Z,55.10
2019-06-27T18:05:08.705Z,55.70
2019-06-27T18:07:38.013Z,55.70
2019-06-27T18:10:07.047Z,56.60
2019-06-27T18:12:36.148Z,56.20
2019-06-27T18:15:05.125Z,56.10
2019-06-27T18:17:34.346Z,56.00
2019-06-27T18:20:03.263Z,57.30
2019-06-27T18:22:32.942Z,57.20
2019-06-27T18:25:01.989Z,57.50
2019-06-27T18:27:30.792Z,57.70
2019-06-27T18:29:59.626Z,58.30
2019-06-27T18:32:28.440Z,58.20
2019-06-27T18:34:57.483Z,58.80
2019-06-27T18:37:29.939Z,59.10
2019-06-27T18:39:56.902Z,59.00
2019-06-27T18:42:26.223Z,59.40
2019-06-27T18:44:58.332Z,59.20
2019-06-27T18:47:27.374Z,60.00
2019-06-27T18:49:56.864Z,60.20
2019-06-27T18:52:26.551Z,60.30
2019-06-27T18:54:55.722Z,60.00
2019-06-27T18:57:24.769Z,61.10
2019-06-27T18:59:53.941Z,60.30
2019-06-27T19:02:23.250Z,61.10
2019-06-27T19:04:52.001Z,60.60
2019-06-27T19:07:21.006Z,60.80
2019-06-27T19:09:50.302Z,61.10
2019-06-27T19:12:19.571Z,61.10
2019-06-27T19:14:48.943Z,62.10
2019-06-27T19:17:18.189Z,62.00
2019-06-27T19:19:49.939Z,62.40
2019-06-27T19:22:36.426Z,62.70
2019-06-27T19:25:10.047Z,62.50
2019-06-27T19:27:38.965Z,63.80
2019-06-27T19:30:08.666Z,67.30
2019-06-27T19:32:37.986Z,65.30
2019-06-27T19:35:07.027Z,67.20
2019-06-27T19:37:35.767Z,70.00
2019-06-27T19:40:07.142Z,69.80
2019-06-27T19:42:36.166Z,69.30
2019-06-27T19:45:05.376Z,68.80
2019-06-27T19:47:34.607Z,68.40
2019-06-27T19:50:03.648Z,68.90
2019-06-27T19:52:32.637Z,68.30
2019-06-27T19:55:12.210Z,68.20
2019-06-27T19:57:41.803Z,67.70
2019-06-27T20:00:11.139Z,69.70
2019-06-27T20:02:40.225Z,69.50
2019-06-27T20:05:09.147Z,68.90
2019-06-27T20:07:52.160Z,69.20
2019-06-27T20:10:21.688Z,68.80
2019-06-27T20:12:50.799Z,68.50
2019-06-27T20:15:19.724Z,70.00
2019-06-27T20:17:48.921Z,68.80
2019-06-27T20:20:17.955Z,70.00
2019-06-27T20:22:46.842Z,70.80
2019-06-27T20:25:15.690Z,69.30
2019-06-27T20:27:44.662Z,69.90
2019-06-27T20:30:13.822Z,71.10
2019-06-27T20:32:42.855Z,70.40
2019-06-27T20:35:11.862Z,71.10
2019-06-27T20:37:41.059Z,70.80
2019-06-27T20:40:10.338Z,71.10
2019-06-27T20:42:39.576Z,71.80
2019-06-27T20:45:09.409Z,71.70
2019-06-27T20:47:38.162Z,71.40
2019-06-27T20:50:07.387Z,71.50
2019-06-27T20:52:36.615Z,71.40
2019-06-27T20:55:05.844Z,70.70
2019-06-27T20:57:35.972Z,70.60
2019-06-27T21:00:05.418Z,72.00
2019-06-27T21:02:34.241Z,71.30
2019-06-27T21:05:03.086Z,72.30
2019-06-27T21:07:32.152Z,72.40
2019-06-27T21:10:01.412Z,72.20
2019-06-27T21:12:30.230Z,73.20
2019-06-27T21:14:59.074Z,72.70
2019-06-27T21:17:27.814Z,72.90
2019-06-27T21:19:56.580Z,73.80
2019-06-27T21:22:25.326Z,73.40
2019-06-27T21:24:54.082Z,73.80
2019-06-27T21:27:22.858Z,73.70
2019-06-27T21:29:51.847Z,74.00
2019-06-27T21:32:31.020Z,74.00
2019-06-27T21:34:52.084Z,74.30
2019-06-27T21:37:21.123Z,74.70
2019-06-27T21:39:49.862Z,75.50
2019-06-27T21:42:19.277Z,74.50
2019-06-27T21:44:48.383Z,75.60
2019-06-27T21:47:17.357Z,75.50
2019-06-27T21:49:46.338Z,76.50
2019-06-27T21:52:15.116Z,76.20
2019-06-27T21:54:45.255Z,76.20
2019-06-27T21:57:14.477Z,77.80
2019-06-27T21:59:43.367Z,76.90
2019-06-27T22:02:12.535Z,77.30
2019-06-27T22:04:41.424Z,77.40
2019-06-27T22:07:10.269Z,78.20
2019-06-27T22:09:39.404Z,78.10
2019-06-27T22:12:08.798Z,78.70
2019-06-27T22:14:37.927Z,79.10
2019-06-27T22:17:06.726Z,79.80
2019-06-27T22:19:35.482Z,79.60
2019-06-27T22:22:04.399Z,79.60
2019-06-27T22:24:33.626Z,79.60
2019-06-27T22:27:02.700Z,80.80
2019-06-27T22:29:31.990Z,81.70
2019-06-27T22:32:01.007Z,82.70
2019-06-27T22:34:30.265Z,83.40
2019-06-27T22:37:03.677Z,83.40
2019-06-27T22:39:52.013Z,84.10
2019-06-27T22:42:38.543Z,84.20
2019-06-27T22:45:25.833Z,84.40
2019-06-27T22:48:12.534Z,84.30
2019-06-27T22:51:05.917Z,84.70
2019-06-27T22:53:39.819Z,86.10
2019-06-27T22:56:08.850Z,86.30
2019-06-27T22:58:37.866Z,86.60
2019-06-27T23:01:07.561Z,87.80
2019-06-27T23:03:36.890Z,87.50
2019-06-27T23:06:05.697Z,86.90
2019-06-27T23:08:34.602Z,88.00
2019-06-27T23:11:03.606Z,87.60
2019-06-27T23:13:32.427Z,88.10
2019-06-27T23:16:01.186Z,87.90
2019-06-27T23:18:30.215Z,87.70
2019-06-27T23:20:59.247Z,87.80
2019-06-27T23:23:28.702Z,88.30
2019-06-27T23:25:57.908Z,88.90
2019-06-27T23:28:26.661Z,89.10
2019-06-27T23:30:55.679Z,89.50
2019-06-27T23:33:24.501Z,89.00
2019-06-27T23:35:53.266Z,88.60
2019-06-27T23:38:22.005Z,89.10
2019-06-27T23:40:50.835Z,90.00
2019-06-27T23:43:20.171Z,90.10
2019-06-27T23:45:49.149Z,89.60
2019-06-27T23:48:18.192Z,89.60
2019-06-27T23:50:47.518Z,90.00
2019-06-27T23:53:16.550Z,90.10
2019-06-27T23:55:45.384Z,90.10
2019-06-27T23:58:14.642Z,90.00
